createdAt,value
2019-03-17T00:00:24.972Z,0
2019-03-17T00:01:25.229Z,0
2019-03-17T00:02:24.979Z,0
2019-03-17T00:03:24.451Z,0
2019-03-17T00:04:36.013Z,0
2019-03-17T00:05:24.949Z,0
2019-03-17T00:06:24.953Z,0
2019-03-17T00:07:24.694Z,0
2019-03-17T00:08:24.956Z,0
2019-03-17T00:09:24.929Z,0
2019-03-17T00:10:25.166Z,0
2019-03-17T00:11:24.924Z,0
2019-03-17T00:12:25.201Z,0
2019-03-17T00:13:27.401Z,0
2019-03-17T00:14:24.650Z,0
2019-03-17T00:15:24.920Z,0
2019-03-17T00:16:24.636Z,0
2019-03-17T00:17:27.574Z,0
2019-03-17T00:18:24.856Z,0
2019-03-17T00:19:27.483Z,0
2019-03-17T00:20:24.617Z,0
2019-03-17T00:21:24.351Z,0
2019-03-17T00:22:24.843Z,0
2019-03-17T00:23:24.322Z,0
2019-03-17T00:24:24.575Z,0
2019-03-17T00:25:24.800Z,0
2019-03-17T00:26:24.564Z,0
2019-03-17T00:27:24.298Z,0
2019-03-17T00:28:24.761Z,0
2019-03-17T00:29:25.042Z,0
2019-03-17T00:30:24.647Z,0
2019-03-17T00:31:33.437Z,0
2019-03-17T00:32:24.523Z,0
2019-03-17T00:33:24.765Z,0
2019-03-17T00:34:25.059Z,0
2019-03-17T00:35:24.546Z,0
2019-03-17T00:36:24.793Z,0
2019-03-17T00:37:24.752Z,0
2019-03-17T00:38:24.219Z,0
2019-03-17T00:39:24.712Z,0
2019-03-17T00:40:24.473Z,0
2019-03-17T00:41:24.471Z,0
2019-03-17T00:42:24.972Z,0
2019-03-17T00:43:24.709Z,0
2019-03-17T00:44:24.678Z,0
2019-03-17T00:45:24.515Z,0
2019-03-17T00:46:24.410Z,0
2019-03-17T00:47:24.410Z,0
2019-03-17T00:48:24.949Z,0
2019-03-17T00:49:24.383Z,0
2019-03-17T00:50:28.835Z,0
2019-03-17T00:51:24.647Z,0
2019-03-17T00:52:24.877Z,0
2019-03-17T00:53:24.607Z,0
2019-03-17T00:54:24.636Z,0
2019-03-17T00:55:24.875Z,0
2019-03-17T00:56:24.865Z,0
2019-03-17T00:57:24.332Z,0
2019-03-17T00:58:24.611Z,0
2019-03-17T00:59:24.903Z,0
2019-03-17T01:00:24.577Z,0
2019-03-17T01:01:24.301Z,0
2019-03-17T01:02:24.790Z,0
2019-03-17T01:03:24.788Z,0
2019-03-17T01:04:24.777Z,0
2019-03-17T01:05:24.616Z,0
2019-03-17T01:06:24.798Z,0
2019-03-17T01:07:24.554Z,0
2019-03-17T01:08:24.810Z,0
2019-03-17T01:09:24.762Z,0
2019-03-17T01:10:24.764Z,0
2019-03-17T01:11:24.497Z,0
2019-03-17T01:12:24.242Z,0
2019-03-17T01:13:24.541Z,0
2019-03-17T01:14:24.219Z,0
2019-03-17T01:15:24.218Z,0
2019-03-17T01:16:24.503Z,0
2019-03-17T01:17:24.465Z,0
2019-03-17T01:18:24.676Z,0
2019-03-17T01:19:24.726Z,0
2019-03-17T01:20:24.438Z,0
2019-03-17T01:21:24.423Z,0
2019-03-17T01:22:24.150Z,0
2019-03-17T01:23:24.411Z,0
2019-03-17T01:24:24.420Z,0
2019-03-17T01:25:24.404Z,0
2019-03-17T01:26:24.138Z,0
2019-03-17T01:27:24.637Z,0
2019-03-17T01:28:24.622Z,0
2019-03-17T01:29:24.620Z,0
2019-03-17T01:30:24.410Z,0
2019-03-17T01:31:24.593Z,0
2019-03-17T01:32:24.343Z,0
2019-03-17T01:33:24.368Z,0
2019-03-17T01:34:24.326Z,0
2019-03-17T01:35:24.322Z,0
2019-03-17T01:36:24.622Z,0
2019-03-17T01:37:24.082Z,0
2019-03-17T01:38:24.287Z,0
2019-03-17T01:39:24.043Z,0
2019-03-17T01:40:24.718Z,0
2019-03-17T01:41:24.034Z,0
2019-03-17T01:42:25.742Z,0
2019-03-17T01:43:24.543Z,0
2019-03-17T01:44:24.256Z,0
2019-03-17T01:45:24.294Z,0
2019-03-17T01:46:24.250Z,0
2019-03-17T01:47:24.271Z,0
2019-03-17T01:48:24.039Z,0
2019-03-17T01:49:23.977Z,0
2019-03-17T01:50:24.535Z,0
2019-03-17T01:51:25.000Z,0
2019-03-17T01:52:24.210Z,0
2019-03-17T01:53:24.430Z,0
2019-03-17T01:54:24.417Z,0
2019-03-17T01:55:23.735Z,0
2019-03-17T01:56:24.169Z,0
2019-03-17T01:57:24.469Z,0
2019-03-17T01:58:23.912Z,0
2019-03-17T01:59:24.393Z,0
2019-03-17T02:00:24.537Z,0
2019-03-17T02:01:24.398Z,0
2019-03-17T02:02:24.151Z,0
2019-03-17T02:03:24.115Z,0
2019-03-17T02:04:24.354Z,0
2019-03-17T02:05:31.569Z,0
2019-03-17T02:06:24.344Z,0
2019-03-17T02:07:24.163Z,0
2019-03-17T02:08:24.328Z,0
2019-03-17T02:09:24.072Z,0
2019-03-17T02:10:24.102Z,0
2019-03-17T02:11:24.353Z,0
2019-03-17T02:12:24.056Z,0
2019-03-17T02:13:23.870Z,0
2019-03-17T02:14:24.307Z,0
2019-03-17T02:15:24.167Z,0
2019-03-17T02:16:24.286Z,0
2019-03-17T02:17:23.772Z,0
2019-03-17T02:18:24.054Z,0
2019-03-17T02:19:24.005Z,0
2019-03-17T02:20:24.349Z,0
2019-03-17T02:21:24.269Z,0
2019-03-17T02:22:26.725Z,0
2019-03-17T02:23:24.005Z,0
2019-03-17T02:24:23.736Z,0
2019-03-17T02:25:23.798Z,0
2019-03-17T02:26:23.961Z,0
2019-03-17T02:27:23.992Z,0
2019-03-17T02:28:23.684Z,0
2019-03-17T02:29:23.701Z,0
2019-03-17T02:30:23.475Z,0
2019-03-17T02:31:23.950Z,0
2019-03-17T02:32:23.941Z,0
2019-03-17T02:33:23.931Z,0
2019-03-17T02:34:23.922Z,0
2019-03-17T02:35:40.376Z,0
2019-03-17T02:36:24.154Z,0
2019-03-17T02:37:23.694Z,0
2019-03-17T02:38:23.649Z,0
2019-03-17T02:39:26.201Z,0
2019-03-17T02:40:24.001Z,0
2019-03-17T02:41:23.913Z,0
2019-03-17T02:42:23.903Z,0
2019-03-17T02:43:23.878Z,0
2019-03-17T02:44:23.820Z,0
2019-03-17T02:45:23.898Z,0
2019-03-17T02:46:23.669Z,0
2019-03-17T02:47:24.084Z,0
2019-03-17T02:48:23.623Z,0
2019-03-17T02:49:23.923Z,0
2019-03-17T02:50:24.141Z,0
2019-03-17T02:51:25.476Z,0
2019-03-17T02:52:23.587Z,0
2019-03-17T02:53:23.312Z,0
2019-03-17T02:54:24.047Z,0
2019-03-17T02:55:23.691Z,0
2019-03-17T02:56:23.835Z,0
2019-03-17T02:57:24.067Z,0
2019-03-17T02:58:23.753Z,0
2019-03-17T02:59:23.710Z,0
2019-03-17T03:00:28.026Z,0
2019-03-17T03:01:23.705Z,0
2019-03-17T03:02:23.462Z,0
2019-03-17T03:03:23.953Z,0
2019-03-17T03:04:23.688Z,0
2019-03-17T03:05:24.011Z,0
2019-03-17T03:06:23.684Z,0
2019-03-17T03:07:23.527Z,0
2019-03-17T03:08:23.919Z,0
2019-03-17T03:09:23.201Z,0
2019-03-17T03:10:23.830Z,0
2019-03-17T03:11:23.666Z,0
2019-03-17T03:12:23.890Z,0
2019-03-17T03:13:23.886Z,0
2019-03-17T03:14:23.656Z,0
2019-03-17T03:15:23.658Z,0
2019-03-17T03:16:23.934Z,0
2019-03-17T03:17:23.884Z,0
2019-03-17T03:18:23.588Z,0
2019-03-17T03:19:23.114Z,0
2019-03-17T03:20:23.650Z,0
2019-03-17T03:21:23.568Z,0
2019-03-17T03:22:23.806Z,0
2019-03-17T03:23:23.774Z,0
2019-03-17T03:24:23.033Z,0
2019-03-17T03:25:23.599Z,0
2019-03-17T03:26:23.271Z,0
2019-03-17T03:27:23.535Z,0
2019-03-17T03:28:23.179Z,0
2019-03-17T03:29:27.174Z,0
2019-03-17T03:30:23.557Z,0
2019-03-17T03:31:23.622Z,0
2019-03-17T03:32:23.537Z,0
2019-03-17T03:33:23.788Z,0
2019-03-17T03:34:23.457Z,0
2019-03-17T03:35:23.849Z,0
2019-03-17T03:36:23.192Z,0
2019-03-17T03:37:23.442Z,0
2019-03-17T03:38:23.445Z,0
2019-03-17T03:39:23.205Z,0
2019-03-17T03:40:23.699Z,0
2019-03-17T03:41:23.169Z,0
2019-03-17T03:42:23.134Z,0
2019-03-17T03:43:22.891Z,0
2019-03-17T03:44:23.356Z,0
2019-03-17T03:45:23.666Z,0
2019-03-17T03:46:23.141Z,0
2019-03-17T03:47:23.336Z,0
2019-03-17T03:48:23.214Z,0
2019-03-17T03:49:23.334Z,0
2019-03-17T03:50:23.667Z,0
2019-03-17T03:51:23.331Z,0
2019-03-17T03:52:23.326Z,0
2019-03-17T03:53:23.139Z,0
2019-03-17T03:54:23.031Z,0
2019-03-17T03:55:23.335Z,0
2019-03-17T03:56:23.300Z,0
2019-03-17T03:57:23.508Z,0
2019-03-17T03:58:23.248Z,0
2019-03-17T03:59:23.013Z,0
2019-03-17T04:00:23.609Z,0
2019-03-17T04:01:23.458Z,0
2019-03-17T04:02:23.242Z,0
2019-03-17T04:03:23.213Z,0
2019-03-17T04:04:23.240Z,0
2019-03-17T04:05:22.985Z,0
2019-03-17T04:06:35.349Z,0
2019-03-17T04:07:22.970Z,0
2019-03-17T04:08:23.424Z,0
2019-03-17T04:09:22.410Z,0
2019-03-17T04:10:23.216Z,0
2019-03-17T04:11:23.155Z,0
2019-03-17T04:12:23.368Z,0
2019-03-17T04:13:22.886Z,0
2019-03-17T04:14:22.883Z,0
2019-03-17T04:15:23.200Z,0
2019-03-17T04:16:22.593Z,0
2019-03-17T04:17:23.074Z,0
2019-03-17T04:18:23.331Z,0
2019-03-17T04:19:22.840Z,0
2019-03-17T04:20:23.238Z,0
2019-03-17T04:21:22.559Z,0
2019-03-17T04:22:23.399Z,0
2019-03-17T04:23:23.033Z,0
2019-03-17T04:24:23.171Z,0
2019-03-17T04:25:22.570Z,0
2019-03-17T04:26:22.784Z,0
2019-03-17T04:27:23.043Z,0
2019-03-17T04:28:23.030Z,0
2019-03-17T04:29:23.002Z,0
2019-03-17T04:30:23.257Z,0
2019-03-17T04:31:24.337Z,0
2019-03-17T04:32:23.219Z,0
2019-03-17T04:33:22.687Z,0
2019-03-17T04:34:22.727Z,0
2019-03-17T04:35:22.754Z,0
2019-03-17T04:36:23.175Z,0
2019-03-17T04:37:22.922Z,0
2019-03-17T04:38:22.931Z,0
2019-03-17T04:39:22.884Z,0
2019-03-17T04:40:22.948Z,0
2019-03-17T04:41:23.139Z,0
2019-03-17T04:42:22.635Z,0
2019-03-17T04:43:22.619Z,0
2019-03-17T04:44:30.089Z,0
2019-03-17T04:45:22.403Z,0
2019-03-17T04:46:22.824Z,0
2019-03-17T04:47:22.567Z,0
2019-03-17T04:48:22.800Z,0
2019-03-17T04:49:22.547Z,0
2019-03-17T04:50:22.887Z,0
2019-03-17T04:51:22.802Z,0
2019-03-17T04:52:22.757Z,0
2019-03-17T04:53:22.841Z,0
2019-03-17T04:54:22.759Z,0
2019-03-17T04:55:22.507Z,0
2019-03-17T04:56:22.731Z,0
2019-03-17T04:57:22.209Z,0
2019-03-17T04:58:21.975Z,0
2019-03-17T04:59:22.439Z,0
2019-03-17T05:00:22.536Z,0
2019-03-17T05:01:22.192Z,0
2019-03-17T05:02:23.111Z,0
2019-03-17T05:03:22.436Z,0
2019-03-17T05:04:22.194Z,0
2019-03-17T05:05:22.468Z,0
2019-03-17T05:06:22.634Z,0
2019-03-17T05:07:22.413Z,0
2019-03-17T05:08:22.389Z,0
2019-03-17T05:09:21.857Z,0
2019-03-17T05:10:25.363Z,0
2019-03-17T05:11:22.108Z,0
2019-03-17T05:12:22.599Z,0
2019-03-17T05:13:22.316Z,0
2019-03-17T05:14:22.081Z,0
2019-03-17T05:15:21.873Z,0
2019-03-17T05:16:22.321Z,0
2019-03-17T05:17:22.301Z,0
2019-03-17T05:18:22.542Z,0
2019-03-17T05:19:22.536Z,0
2019-03-17T05:20:22.067Z,0
2019-03-17T05:21:22.496Z,0
2019-03-17T05:22:22.008Z,0
2019-03-17T05:23:21.983Z,0
2019-03-17T05:24:22.495Z,0
2019-03-17T05:25:22.555Z,0
2019-03-17T05:26:22.235Z,0
2019-03-17T05:27:23.005Z,0
2019-03-17T05:28:25.463Z,5
2019-03-17T05:29:22.766Z,5
2019-03-17T05:30:22.524Z,5
2019-03-17T05:31:21.938Z,5
2019-03-17T05:32:22.457Z,5
2019-03-17T05:33:22.402Z,5
2019-03-17T05:34:22.166Z,5
2019-03-17T05:35:22.395Z,10
2019-03-17T05:36:22.376Z,10
2019-03-17T05:37:22.613Z,10
2019-03-17T05:38:22.115Z,10
2019-03-17T05:39:22.356Z,15
2019-03-17T05:40:22.209Z,15
2019-03-17T05:41:22.075Z,15
2019-03-17T05:42:22.074Z,15
2019-03-17T05:43:22.376Z,15
2019-03-17T05:44:21.809Z,20
2019-03-17T05:45:22.197Z,20
2019-03-17T05:46:22.038Z,20
2019-03-17T05:47:22.027Z,25
2019-03-17T05:48:22.257Z,25
2019-03-17T05:49:22.257Z,25
2019-03-17T05:50:22.277Z,25
2019-03-17T05:51:21.523Z,30
2019-03-17T05:52:22.230Z,30
2019-03-17T05:53:21.733Z,30
2019-03-17T05:54:21.979Z,35
2019-03-17T05:55:21.757Z,35
2019-03-17T05:56:21.716Z,35
2019-03-17T05:57:21.438Z,40
2019-03-17T05:58:21.936Z,40
2019-03-17T05:59:24.514Z,45
2019-03-17T06:00:21.977Z,45
2019-03-17T06:01:21.911Z,45
2019-03-17T06:02:22.143Z,50
2019-03-17T06:03:22.127Z,50
2019-03-17T06:04:22.114Z,50
2019-03-17T06:05:21.934Z,50
2019-03-17T06:06:22.102Z,55
2019-03-17T06:07:28.316Z,55
2019-03-17T06:08:22.330Z,60
2019-03-17T06:09:21.836Z,60
2019-03-17T06:10:21.922Z,65
2019-03-17T06:11:22.323Z,65
2019-03-17T06:12:22.402Z,70
2019-03-17T06:13:21.807Z,70
2019-03-17T06:14:22.048Z,70
2019-03-17T06:15:21.881Z,70
2019-03-17T06:16:21.789Z,70
2019-03-17T06:17:22.038Z,70
2019-03-17T06:18:22.046Z,75
2019-03-17T06:19:21.764Z,75
2019-03-17T06:20:21.631Z,75
2019-03-17T06:21:21.756Z,75
2019-03-17T06:22:21.982Z,75
2019-03-17T06:23:23.913Z,80
2019-03-17T06:24:22.225Z,80
2019-03-17T06:25:22.168Z,85
2019-03-17T06:26:21.458Z,90
2019-03-17T06:27:21.739Z,95
2019-03-17T06:28:24.163Z,95
2019-03-17T06:29:21.427Z,95
2019-03-17T06:30:21.746Z,95
2019-03-17T06:31:21.923Z,90
2019-03-17T06:32:21.916Z,90
2019-03-17T06:33:21.922Z,90
2019-03-17T06:34:24.223Z,90
2019-03-17T06:35:21.227Z,90
2019-03-17T06:36:21.620Z,90
2019-03-17T06:37:33.286Z,90
2019-03-17T06:38:21.853Z,95
2019-03-17T06:39:21.423Z,95
2019-03-17T06:40:21.927Z,95
2019-03-17T06:41:21.850Z,95
2019-03-17T06:42:22.085Z,100
2019-03-17T06:43:21.589Z,100
2019-03-17T06:44:21.854Z,100
2019-03-17T06:45:21.341Z,100
2019-03-17T06:46:21.550Z,110
2019-03-17T06:47:21.832Z,115
2019-03-17T06:48:21.291Z,115
2019-03-17T06:49:21.539Z,120
2019-03-17T06:50:21.635Z,125
2019-03-17T06:51:21.760Z,125
2019-03-17T06:52:21.768Z,125
2019-03-17T06:53:21.639Z,130
2019-03-17T06:54:22.009Z,125
2019-03-17T06:55:21.550Z,125
2019-03-17T06:56:21.746Z,130
2019-03-17T06:57:21.508Z,135
2019-03-17T06:58:21.451Z,140
2019-03-17T06:59:24.768Z,140
2019-03-17T07:00:22.091Z,145
2019-03-17T07:01:21.435Z,145
2019-03-17T07:02:20.968Z,145
2019-03-17T07:03:21.666Z,150
2019-03-17T07:04:21.911Z,150
2019-03-17T07:05:22.009Z,150
2019-03-17T07:06:21.946Z,155
2019-03-17T07:07:21.640Z,165
2019-03-17T07:08:21.700Z,180
2019-03-17T07:09:21.149Z,185
2019-03-17T07:10:21.650Z,190
2019-03-17T07:11:21.375Z,205
2019-03-17T07:12:21.133Z,205
2019-03-17T07:13:20.848Z,200
2019-03-17T07:14:21.836Z,200
2019-03-17T07:15:21.620Z,225
2019-03-17T07:16:21.344Z,240
2019-03-17T07:17:24.162Z,245
2019-03-17T07:18:21.564Z,240
2019-03-17T07:19:21.576Z,215
2019-03-17T07:20:21.433Z,240
2019-03-17T07:21:21.335Z,245
2019-03-17T07:22:21.324Z,255
2019-03-17T07:23:21.542Z,260
2019-03-17T07:24:22.375Z,260
2019-03-17T07:25:21.879Z,250
2019-03-17T07:26:21.799Z,255
2019-03-17T07:27:21.554Z,235
2019-03-17T07:28:21.293Z,205
2019-03-17T07:29:21.851Z,255
2019-03-17T07:30:21.649Z,255
2019-03-17T07:31:21.820Z,275
2019-03-17T07:32:21.532Z,265
2019-03-17T07:33:21.811Z,280
2019-03-17T07:34:21.723Z,270
2019-03-17T07:35:21.886Z,250
2019-03-17T07:36:21.569Z,255
2019-03-17T07:37:21.300Z,225
2019-03-17T07:38:21.552Z,255
2019-03-17T07:39:22.091Z,245
2019-03-17T07:40:21.416Z,235
2019-03-17T07:41:21.065Z,240
2019-03-17T07:42:21.574Z,240
2019-03-17T07:43:21.575Z,240
2019-03-17T07:44:21.082Z,235
2019-03-17T07:45:21.612Z,220
2019-03-17T07:46:21.565Z,235
2019-03-17T07:47:21.891Z,235
2019-03-17T07:48:21.874Z,240
2019-03-17T07:49:21.847Z,240
2019-03-17T07:50:21.933Z,250
2019-03-17T07:51:21.336Z,250
2019-03-17T07:52:21.922Z,260
2019-03-17T07:53:21.661Z,265
2019-03-17T07:54:23.206Z,265
2019-03-17T07:55:21.701Z,265
2019-03-17T07:56:21.354Z,265
2019-03-17T07:57:21.609Z,265
2019-03-17T07:58:21.878Z,265
2019-03-17T07:59:21.387Z,275
2019-03-17T08:00:34.231Z,270
2019-03-17T08:01:21.625Z,270
2019-03-17T08:02:21.621Z,265
2019-03-17T08:03:21.620Z,270
2019-03-17T08:04:21.622Z,265
2019-03-17T08:05:22.016Z,260
2019-03-17T08:06:21.658Z,270
2019-03-17T08:07:24.210Z,270
2019-03-17T08:08:21.681Z,270
2019-03-17T08:09:21.723Z,255
2019-03-17T08:10:21.766Z,260
2019-03-17T08:11:21.930Z,265
2019-03-17T08:12:21.665Z,250
2019-03-17T08:13:21.675Z,230
2019-03-17T08:14:21.425Z,250
2019-03-17T08:15:21.715Z,230
2019-03-17T08:16:21.924Z,240
2019-03-17T08:17:21.691Z,250
2019-03-17T08:18:21.688Z,250
2019-03-17T08:19:21.707Z,235
2019-03-17T08:20:21.677Z,245
2019-03-17T08:21:21.978Z,250
2019-03-17T08:22:21.972Z,245
2019-03-17T08:23:21.966Z,245
2019-03-17T08:24:21.480Z,245
2019-03-17T08:25:21.759Z,250
2019-03-17T08:26:21.988Z,260
2019-03-17T08:27:21.476Z,245
2019-03-17T08:28:21.992Z,255
2019-03-17T08:29:21.739Z,245
2019-03-17T08:30:21.805Z,250
2019-03-17T08:31:21.754Z,245
2019-03-17T08:32:21.498Z,255
2019-03-17T08:33:22.015Z,255
2019-03-17T08:34:22.029Z,250
2019-03-17T08:35:21.933Z,250
2019-03-17T08:36:21.803Z,255
2019-03-17T08:37:21.517Z,255
2019-03-17T08:38:31.195Z,255
2019-03-17T08:39:21.768Z,255
2019-03-17T08:40:21.589Z,265
2019-03-17T08:41:21.778Z,265
2019-03-17T08:42:21.794Z,265
2019-03-17T08:43:21.801Z,270
2019-03-17T08:44:22.046Z,270
2019-03-17T08:45:21.857Z,275
2019-03-17T08:46:21.309Z,275
2019-03-17T08:47:24.579Z,280
2019-03-17T08:48:22.037Z,280
2019-03-17T08:49:21.313Z,280
2019-03-17T08:50:21.673Z,280
2019-03-17T08:51:22.314Z,280
2019-03-17T08:52:21.801Z,285
2019-03-17T08:53:21.814Z,280
2019-03-17T08:54:21.836Z,270
2019-03-17T08:55:21.586Z,275
2019-03-17T08:56:22.040Z,275
2019-03-17T08:57:21.522Z,270
2019-03-17T08:58:21.782Z,280
2019-03-17T08:59:21.815Z,280
2019-03-17T09:00:21.916Z,275
2019-03-17T09:01:21.955Z,275
2019-03-17T09:02:21.559Z,280
2019-03-17T09:03:21.836Z,280
2019-03-17T09:04:21.540Z,280
2019-03-17T09:05:21.377Z,280
2019-03-17T09:06:21.640Z,280
2019-03-17T09:07:21.575Z,275
2019-03-17T09:08:33.740Z,275
2019-03-17T09:09:21.809Z,270
2019-03-17T09:10:21.822Z,265
2019-03-17T09:11:21.570Z,265
2019-03-17T09:12:22.034Z,260
2019-03-17T09:13:21.818Z,260
2019-03-17T09:14:21.906Z,250
2019-03-17T09:15:21.865Z,255
2019-03-17T09:16:21.564Z,235
2019-03-17T09:17:24.079Z,255
2019-03-17T09:18:21.580Z,245
2019-03-17T09:19:21.556Z,260
2019-03-17T09:20:22.159Z,255
2019-03-17T09:21:21.556Z,245
2019-03-17T09:22:21.540Z,240
2019-03-17T09:23:21.791Z,250
2019-03-17T09:24:26.737Z,245
2019-03-17T09:25:21.841Z,250
2019-03-17T09:26:21.602Z,250
2019-03-17T09:27:21.802Z,240
2019-03-17T09:28:21.796Z,240
2019-03-17T09:29:21.818Z,240
2019-03-17T09:30:21.417Z,220
2019-03-17T09:31:21.824Z,225
2019-03-17T09:32:21.800Z,220
2019-03-17T09:33:21.567Z,220
2019-03-17T09:34:21.319Z,220
2019-03-17T09:35:21.822Z,215
2019-03-17T09:36:22.075Z,220
2019-03-17T09:37:21.777Z,225
2019-03-17T09:38:21.822Z,230
2019-03-17T09:39:21.308Z,235
2019-03-17T09:40:22.108Z,240
2019-03-17T09:41:21.564Z,235
2019-03-17T09:42:21.567Z,245
2019-03-17T09:43:21.069Z,235
2019-03-17T09:44:21.805Z,250
2019-03-17T09:45:21.921Z,240
2019-03-17T09:46:21.811Z,245
2019-03-17T09:47:21.299Z,245
2019-03-17T09:48:21.805Z,250
2019-03-17T09:49:21.568Z,245
2019-03-17T09:50:22.177Z,245
2019-03-17T09:51:21.564Z,245
2019-03-17T09:52:21.794Z,240
2019-03-17T09:53:21.800Z,245
2019-03-17T09:54:21.565Z,250
2019-03-17T09:55:21.583Z,245
2019-03-17T09:56:21.800Z,245
2019-03-17T09:57:21.546Z,245
2019-03-17T09:58:21.573Z,250
2019-03-17T09:59:21.381Z,250
2019-03-17T10:00:21.957Z,255
2019-03-17T10:01:21.541Z,245
2019-03-17T10:02:21.313Z,250
2019-03-17T10:03:21.645Z,250
2019-03-17T10:04:21.810Z,250
2019-03-17T10:05:22.056Z,250
2019-03-17T10:06:21.325Z,250
2019-03-17T10:07:22.062Z,255
2019-03-17T10:08:21.828Z,260
2019-03-17T10:09:21.788Z,260
2019-03-17T10:10:21.559Z,260
2019-03-17T10:11:21.777Z,250
2019-03-17T10:12:21.321Z,255
2019-03-17T10:13:21.858Z,250
2019-03-17T10:14:21.532Z,250
2019-03-17T10:15:21.580Z,250
2019-03-17T10:16:22.056Z,250
2019-03-17T10:17:21.285Z,250
2019-03-17T10:18:21.298Z,245
2019-03-17T10:19:21.289Z,250
2019-03-17T10:20:21.909Z,250
2019-03-17T10:21:21.541Z,250
2019-03-17T10:22:21.047Z,250
2019-03-17T10:23:22.064Z,245
2019-03-17T10:24:22.348Z,250
2019-03-17T10:25:21.809Z,240
2019-03-17T10:26:21.800Z,245
2019-03-17T10:27:21.548Z,250
2019-03-17T10:28:21.814Z,255
2019-03-17T10:29:22.052Z,255
2019-03-17T10:30:21.343Z,255
2019-03-17T10:31:21.810Z,260
2019-03-17T10:32:21.824Z,260
2019-03-17T10:33:21.803Z,260
2019-03-17T10:34:22.066Z,260
2019-03-17T10:35:21.986Z,260
2019-03-17T10:36:21.854Z,265
2019-03-17T10:37:22.185Z,270
2019-03-17T10:38:21.066Z,265
2019-03-17T10:39:21.697Z,270
2019-03-17T10:40:22.094Z,265
2019-03-17T10:41:21.557Z,260
2019-03-17T10:42:22.052Z,260
2019-03-17T10:43:21.323Z,260
2019-03-17T10:44:21.305Z,260
2019-03-17T10:45:21.899Z,260
2019-03-17T10:46:22.057Z,260
2019-03-17T10:47:22.063Z,265
2019-03-17T10:48:21.651Z,270
2019-03-17T10:49:21.831Z,270
2019-03-17T10:50:21.842Z,265
2019-03-17T10:51:21.846Z,255
2019-03-17T10:52:21.830Z,260
2019-03-17T10:53:21.325Z,260
2019-03-17T10:54:24.271Z,250
2019-03-17T10:55:21.851Z,240
2019-03-17T10:56:21.831Z,240
2019-03-17T10:57:21.333Z,255
2019-03-17T10:58:21.852Z,260
2019-03-17T10:59:21.879Z,280
2019-03-17T11:00:21.651Z,290
2019-03-17T11:01:21.829Z,285
2019-03-17T11:02:22.076Z,285
2019-03-17T11:03:21.853Z,295
2019-03-17T11:04:21.353Z,305
2019-03-17T11:05:21.440Z,310
2019-03-17T11:06:21.842Z,310
2019-03-17T11:07:21.822Z,275
2019-03-17T11:08:21.830Z,275
2019-03-17T11:09:33.671Z,280
2019-03-17T11:10:21.361Z,270
2019-03-17T11:11:21.611Z,280
2019-03-17T11:12:21.344Z,285
2019-03-17T11:13:22.078Z,305
2019-03-17T11:14:22.086Z,315
2019-03-17T11:15:21.637Z,310
2019-03-17T11:16:21.834Z,290
2019-03-17T11:17:21.827Z,280
2019-03-17T11:18:21.583Z,280
2019-03-17T11:19:21.880Z,285
2019-03-17T11:20:22.173Z,300
2019-03-17T11:21:22.182Z,305
2019-03-17T11:22:22.096Z,295
2019-03-17T11:23:21.081Z,300
2019-03-17T11:24:21.626Z,305
2019-03-17T11:25:21.905Z,305
2019-03-17T11:26:21.843Z,295
2019-03-17T11:27:21.886Z,285
2019-03-17T11:28:21.947Z,285
2019-03-17T11:29:22.092Z,290
2019-03-17T11:30:21.971Z,295
2019-03-17T11:31:21.679Z,285
2019-03-17T11:32:21.894Z,285
2019-03-17T11:33:21.447Z,300
2019-03-17T11:34:21.911Z,315
2019-03-17T11:35:21.703Z,290
2019-03-17T11:36:21.884Z,270
2019-03-17T11:37:23.589Z,295
2019-03-17T11:38:21.374Z,305
2019-03-17T11:39:21.681Z,295
2019-03-17T11:40:22.049Z,280
2019-03-17T11:41:21.620Z,290
2019-03-17T11:42:21.379Z,305
2019-03-17T11:43:21.374Z,300
2019-03-17T11:44:22.127Z,285
2019-03-17T11:45:21.679Z,300
2019-03-17T11:46:21.634Z,300
2019-03-17T11:47:21.889Z,295
2019-03-17T11:48:21.664Z,290
2019-03-17T11:49:21.876Z,300
2019-03-17T11:50:22.173Z,295
2019-03-17T11:51:21.894Z,330
2019-03-17T11:52:21.636Z,340
2019-03-17T11:53:21.902Z,295
2019-03-17T11:54:21.638Z,275
2019-03-17T11:55:23.252Z,270
2019-03-17T11:56:21.648Z,330
2019-03-17T11:57:21.633Z,345
2019-03-17T11:58:21.645Z,315
2019-03-17T11:59:21.902Z,260
2019-03-17T12:00:21.954Z,300
2019-03-17T12:01:24.737Z,335
2019-03-17T12:02:33.228Z,340
2019-03-17T12:03:21.655Z,340
2019-03-17T12:04:21.901Z,320
2019-03-17T12:05:21.910Z,315
2019-03-17T12:06:21.660Z,325
2019-03-17T12:07:21.917Z,320
2019-03-17T12:08:21.899Z,330
2019-03-17T12:09:33.888Z,335
2019-03-17T12:10:21.994Z,335
2019-03-17T12:11:21.909Z,325
2019-03-17T12:12:21.687Z,305
2019-03-17T12:13:21.679Z,305
2019-03-17T12:14:21.975Z,310
2019-03-17T12:15:21.491Z,310
2019-03-17T12:16:21.682Z,315
2019-03-17T12:17:21.923Z,315
2019-03-17T12:18:21.941Z,325
2019-03-17T12:19:21.681Z,320
2019-03-17T12:20:22.179Z,315
2019-03-17T12:21:22.202Z,315
2019-03-17T12:22:22.170Z,260
2019-03-17T12:23:21.941Z,250
2019-03-17T12:24:22.184Z,200
2019-03-17T12:25:21.720Z,210
2019-03-17T12:26:21.953Z,230
2019-03-17T12:27:21.739Z,255
2019-03-17T12:28:21.426Z,265
2019-03-17T12:29:22.208Z,280
2019-03-17T12:30:22.289Z,265
2019-03-17T12:31:21.691Z,275
2019-03-17T12:32:21.955Z,225
2019-03-17T12:33:22.215Z,230
2019-03-17T12:34:32.932Z,225
2019-03-17T12:35:21.724Z,220
2019-03-17T12:36:23.848Z,215
2019-03-17T12:37:21.969Z,220
2019-03-17T12:38:22.185Z,240
2019-03-17T12:39:21.744Z,235
2019-03-17T12:40:21.771Z,250
2019-03-17T12:41:22.273Z,225
2019-03-17T12:42:21.956Z,205
2019-03-17T12:43:21.705Z,170
2019-03-17T12:44:21.452Z,155
2019-03-17T12:45:22.280Z,155
2019-03-17T12:46:22.221Z,150
2019-03-17T12:47:21.709Z,150
2019-03-17T12:48:22.195Z,145
2019-03-17T12:49:22.198Z,140
2019-03-17T12:50:21.313Z,155
2019-03-17T12:51:21.463Z,180
2019-03-17T12:52:21.500Z,180
2019-03-17T12:53:21.747Z,170
2019-03-17T12:54:22.596Z,175
2019-03-17T12:55:21.699Z,170
2019-03-17T12:56:22.196Z,145
2019-03-17T12:57:21.957Z,120
2019-03-17T12:58:24.556Z,100
2019-03-17T12:59:21.974Z,145
2019-03-17T13:00:22.032Z,135
2019-03-17T13:01:21.959Z,140
2019-03-17T13:02:21.716Z,135
2019-03-17T13:03:21.714Z,125
2019-03-17T13:04:22.180Z,120
2019-03-17T13:05:23.092Z,125
2019-03-17T13:06:21.465Z,140
2019-03-17T13:07:21.696Z,145
2019-03-17T13:08:21.957Z,140
2019-03-17T13:09:22.264Z,165
2019-03-17T13:10:25.060Z,145
2019-03-17T13:11:21.947Z,155
2019-03-17T13:12:22.192Z,175
2019-03-17T13:13:21.731Z,160
2019-03-17T13:14:21.442Z,155
2019-03-17T13:15:22.204Z,150
2019-03-17T13:16:21.718Z,130
2019-03-17T13:17:22.241Z,125
2019-03-17T13:18:22.251Z,125
2019-03-17T13:19:21.206Z,110
2019-03-17T13:20:22.212Z,100
2019-03-17T13:21:22.007Z,85
2019-03-17T13:22:21.952Z,75
2019-03-17T13:23:21.742Z,70
2019-03-17T13:24:21.700Z,60
2019-03-17T13:25:21.717Z,60
2019-03-17T13:26:21.955Z,60
2019-03-17T13:27:21.950Z,60
2019-03-17T13:28:21.447Z,60
2019-03-17T13:29:21.963Z,60
2019-03-17T13:30:22.258Z,60
2019-03-17T13:31:23.111Z,60
2019-03-17T13:32:22.204Z,60
2019-03-17T13:33:22.192Z,60
2019-03-17T13:34:22.965Z,55
2019-03-17T13:35:21.742Z,50
2019-03-17T13:36:21.958Z,45
2019-03-17T13:37:21.936Z,55
2019-03-17T13:38:21.691Z,60
2019-03-17T13:39:22.191Z,60
2019-03-17T13:40:35.521Z,60
2019-03-17T13:41:21.431Z,60
2019-03-17T13:42:22.190Z,60
2019-03-17T13:43:21.684Z,60
2019-03-17T13:44:21.961Z,55
2019-03-17T13:45:22.233Z,65
2019-03-17T13:46:21.480Z,65
2019-03-17T13:47:21.959Z,65
2019-03-17T13:48:21.947Z,75
2019-03-17T13:49:21.949Z,90
2019-03-17T13:50:22.007Z,95
2019-03-17T13:51:21.898Z,85
2019-03-17T13:52:22.144Z,80
2019-03-17T13:53:22.957Z,70
2019-03-17T13:54:21.655Z,70
2019-03-17T13:55:21.729Z,80
2019-03-17T13:56:24.781Z,80
2019-03-17T13:57:21.671Z,90
2019-03-17T13:58:22.142Z,100
2019-03-17T13:59:21.628Z,95
2019-03-17T14:00:21.958Z,90
2019-03-17T14:01:21.869Z,65
2019-03-17T14:02:21.610Z,65
2019-03-17T14:03:21.615Z,70
2019-03-17T14:04:24.825Z,80
2019-03-17T14:05:21.471Z,90
2019-03-17T14:06:21.855Z,90
2019-03-17T14:07:22.488Z,75
2019-03-17T14:08:21.833Z,60
2019-03-17T14:09:23.950Z,60
2019-03-17T14:10:23.930Z,60
2019-03-17T14:11:22.873Z,65
2019-03-17T14:12:21.854Z,65
2019-03-17T14:13:21.814Z,75